Forside
METAR-TAF:

METAR-TAF

Lufthavne :

Thule Air Base

Thule, Grønland

Breddekreds: 76-32N, længdekreds: 068-42W, højde: 77 m

Aktuelle vejr

Denne rapport blev lavet for 1 time og 4 minutter siden, kl. 08:56 UTC
Vind stille
Temperatur -6°C
Fugtighed 73%
Tryk 1009 hPa
Sigt 10 km eller mere
Overskyet i en højde af 5000 ft

METAR: BGTL 230856Z AUTO 00000KT 9999 OVC050 M06/M10 A2981 RMK AO2 SLP081 T10581101 57013 TSNO $

Tid: 07:00 (10:00 UTC)

Vejrudsigter

Denne rapport blev lavet for 13 timer og 0 minutter siden, kl. 21:00 UTC
Foreløbig gælder fra 22 på 21 UTC til 23 på 23 UTC
Vind 6 kt fra varierende retninger
Sigt: 2401 m
Nogle få skyer i en højde af 4000 ft

TAF: BGTL 222100Z 2221/2323 VRB06KT 9999 FEW040 QNH2963INS TX00/2317Z TNM08/2308Z LAST NO AMDS AFT 2221 NEXT 2401

Vejrobservationer og prognoser fra mere end 4000 lufthavne (METAR og TAF).

De gule og røde prikker repræsenterer de meteorologiske stationer.

Flyt musen over at se navnet på stationen.

Så klik over at se vejr observationer og prognoser.

At skifte det kort: Klik på de grønne knapper med et sort kors for at zoome ind; på den grønne knap med en bindestreg for at zoome ud; eller på de grønne pile for tilstødende kort.


METAR-TAF: